createdAt,value
2023-04-14T00:02:06.801Z,5.60
2023-04-14T00:04:34.037Z,5.60
2023-04-14T00:07:01.269Z,5.70
2023-04-14T00:09:28.845Z,5.70
2023-04-14T00:11:57.538Z,5.70
2023-04-14T00:14:24.884Z,5.70
2023-04-14T00:16:51.674Z,5.80
2023-04-14T00:19:18.554Z,5.70
2023-04-14T00:21:45.865Z,5.80
2023-04-14T00:24:12.603Z,5.80
2023-04-14T00:26:39.413Z,5.80
2023-04-14T00:29:06.150Z,5.80
2023-04-14T00:31:33.061Z,5.80
2023-04-14T00:33:59.831Z,5.80
2023-04-14T00:36:26.903Z,5.80
2023-04-14T00:38:53.720Z,5.80
2023-04-14T00:41:20.918Z,5.80
2023-04-14T00:43:47.676Z,5.80
2023-04-14T00:46:17.208Z,5.80
2023-04-14T00:48:44.405Z,5.70
2023-04-14T00:51:11.770Z,5.80
2023-04-14T00:53:39.931Z,5.80
2023-04-14T00:56:07.421Z,5.80
2023-04-14T00:58:34.876Z,5.70
2023-04-14T01:01:01.836Z,5.60
2023-04-14T01:03:29.058Z,5.60
2023-04-14T01:05:56.928Z,5.70
2023-04-14T01:08:25.598Z,5.70
2023-04-14T01:11:06.617Z,5.70
2023-04-14T01:13:49.084Z,5.70
2023-04-14T01:16:31.613Z,5.70
2023-04-14T01:19:16.763Z,5.80
2023-04-14T01:21:49.773Z,5.80
2023-04-14T01:24:30.351Z,5.80
2023-04-14T01:27:19.713Z,5.80
2023-04-14T01:30:10.750Z,5.90
2023-04-14T01:32:44.329Z,5.80
2023-04-14T01:35:20.835Z,5.80
2023-04-14T01:37:52.359Z,5.80
2023-04-14T01:40:20.829Z,5.80
2023-04-14T01:43:02.259Z,5.80
2023-04-14T01:45:36.391Z,5.80
2023-04-14T01:48:04.968Z,5.90
2023-04-14T01:50:34.502Z,5.80
2023-04-14T01:53:03.347Z,5.80
2023-04-14T01:55:31.844Z,5.80
2023-04-14T01:57:59.252Z,5.80
2023-04-14T02:00:26.662Z,5.80
2023-04-14T02:02:55.057Z,5.80
2023-04-14T02:05:22.817Z,5.70
2023-04-14T02:07:51.480Z,5.60
2023-04-14T02:10:21.423Z,5.60
2023-04-14T02:12:52.667Z,5.60
2023-04-14T02:15:22.277Z,5.60
2023-04-14T02:17:50.714Z,5.60
2023-04-14T02:20:21.139Z,5.60
2023-04-14T02:22:48.344Z,5.60
2023-04-14T02:25:15.314Z,5.60
2023-04-14T02:28:02.579Z,5.60
2023-04-14T02:30:33.781Z,5.50
2023-04-14T02:33:05.922Z,5.50
2023-04-14T02:35:44.462Z,5.50
2023-04-14T02:38:19.527Z,5.40
2023-04-14T02:40:46.387Z,5.40
2023-04-14T02:43:25.828Z,5.50
2023-04-14T02:45:54.201Z,5.50
2023-04-14T02:48:24.492Z,5.50
2023-04-14T02:50:54.713Z,5.60
2023-04-14T02:53:23.964Z,5.60
2023-04-14T02:55:54.613Z,5.60
2023-04-14T02:58:21.942Z,5.60
2023-04-14T03:00:50.242Z,5.70
2023-04-14T03:03:18.452Z,5.80
2023-04-14T03:05:47.028Z,5.70
2023-04-14T03:08:16.045Z,5.70
2023-04-14T03:10:46.185Z,5.60
2023-04-14T03:13:15.231Z,5.50
2023-04-14T03:15:42.807Z,5.60
2023-04-14T03:18:12.071Z,5.60
2023-04-14T03:20:41.403Z,5.60
2023-04-14T03:23:12.076Z,5.60
2023-04-14T03:25:40.417Z,5.60
2023-04-14T03:28:12.171Z,5.50
2023-04-14T03:30:43.762Z,5.50
2023-04-14T03:33:13.633Z,5.50
2023-04-14T03:35:41.796Z,5.50
2023-04-14T03:38:11.010Z,5.50
2023-04-14T03:40:42.253Z,5.50
2023-04-14T03:43:12.211Z,5.50
2023-04-14T03:45:40.522Z,5.50
2023-04-14T03:48:11.843Z,5.40
2023-04-14T03:50:42.150Z,5.40
2023-04-14T03:53:14.254Z,5.50
2023-04-14T03:55:44.665Z,5.50
2023-04-14T03:58:13.324Z,5.40
2023-04-14T04:00:41.088Z,5.40
2023-04-14T04:03:08.612Z,5.40
2023-04-14T04:05:40.428Z,5.40
2023-04-14T04:08:09.404Z,5.50
2023-04-14T04:10:38.591Z,5.50
2023-04-14T04:13:12.712Z,5.40
2023-04-14T04:15:40.848Z,5.40
2023-04-14T04:18:10.390Z,5.50
2023-04-14T04:20:38.739Z,5.50
2023-04-14T04:23:07.664Z,5.50
2023-04-14T04:25:37.396Z,5.50
2023-04-14T04:28:05.012Z,5.40
2023-04-14T04:30:33.361Z,5.40
2023-04-14T04:33:03.623Z,5.40
2023-04-14T04:35:32.318Z,5.30
2023-04-14T04:38:00.923Z,5.30
2023-04-14T04:40:27.960Z,5.30
2023-04-14T04:42:54.744Z,5.30
2023-04-14T04:45:45.928Z,5.30
2023-04-14T04:48:12.735Z,5.30
2023-04-14T04:50:39.551Z,5.30
2023-04-14T04:53:06.317Z,5.30
2023-04-14T04:55:33.089Z,5.30
2023-04-14T04:57:59.812Z,5.30
2023-04-14T05:00:27.129Z,5.30
2023-04-14T05:02:54.015Z,5.30
2023-04-14T05:05:21.569Z,5.40
2023-04-14T05:07:48.365Z,5.40
2023-04-14T05:10:15.261Z,5.40
2023-04-14T05:12:41.990Z,5.40
2023-04-14T05:15:09.718Z,5.40
2023-04-14T05:17:37.221Z,5.50
2023-04-14T05:20:05.674Z,5.50
2023-04-14T05:22:33.042Z,5.50
2023-04-14T05:24:59.819Z,5.50
2023-04-14T05:27:26.614Z,5.50
2023-04-14T05:29:53.385Z,5.50
2023-04-14T05:32:21.527Z,5.60
2023-04-14T05:34:48.452Z,5.60
2023-04-14T05:37:15.370Z,5.70
2023-04-14T05:39:42.297Z,5.70
2023-04-14T05:42:09.165Z,5.70
2023-04-14T05:44:35.972Z,5.70
2023-04-14T05:47:02.926Z,5.80
2023-04-14T05:49:29.736Z,5.80
2023-04-14T05:51:56.718Z,5.80
2023-04-14T05:54:23.627Z,5.80
2023-04-14T05:56:50.542Z,5.80
2023-04-14T05:59:17.356Z,5.80
2023-04-14T06:01:44.218Z,5.90
2023-04-14T06:04:11.492Z,5.90
2023-04-14T06:06:38.616Z,5.90
2023-04-14T06:09:05.414Z,5.90
2023-04-14T06:11:32.270Z,6.00
2023-04-14T06:14:01.955Z,6.00
2023-04-14T06:16:29.120Z,6.00
2023-04-14T06:18:55.865Z,6.10
2023-04-14T06:21:22.725Z,6.10
2023-04-14T06:23:49.576Z,6.10
2023-04-14T06:26:16.441Z,6.10
2023-04-14T06:28:43.919Z,6.20
2023-04-14T06:31:11.166Z,6.20
2023-04-14T06:33:37.926Z,6.10
2023-04-14T06:36:04.778Z,6.30
2023-04-14T06:38:31.529Z,6.30
2023-04-14T06:40:58.282Z,6.30
2023-04-14T06:43:25.016Z,6.20
2023-04-14T06:45:51.875Z,6.20
2023-04-14T06:48:18.684Z,6.30
2023-04-14T06:50:53.546Z,6.40
2023-04-14T06:53:20.806Z,6.40
2023-04-14T06:55:50.328Z,6.40
2023-04-14T06:58:17.319Z,6.40
2023-04-14T07:00:44.241Z,6.40
2023-04-14T07:03:10.996Z,6.40
2023-04-14T07:05:37.874Z,6.40
2023-04-14T07:08:04.925Z,6.30
2023-04-14T07:10:31.737Z,6.30
2023-04-14T07:12:58.522Z,6.30
2023-04-14T07:15:25.276Z,6.30
2023-04-14T07:17:52.083Z,6.30
2023-04-14T07:20:18.905Z,6.30
2023-04-14T07:22:45.637Z,6.30
2023-04-14T07:25:12.393Z,6.30
2023-04-14T07:27:43.162Z,6.30
2023-04-14T07:30:14.539Z,6.30
2023-04-14T07:32:41.376Z,6.30
2023-04-14T07:35:10.842Z,6.40
2023-04-14T07:37:37.751Z,6.30
2023-04-14T07:40:05.127Z,6.30
2023-04-14T07:42:31.871Z,6.40
2023-04-14T07:44:59.434Z,6.50
2023-04-14T07:47:26.298Z,6.40
2023-04-14T07:49:54.402Z,6.50
2023-04-14T07:52:21.160Z,6.40
2023-04-14T07:54:51.055Z,6.50
2023-04-14T07:57:17.854Z,6.60
2023-04-14T07:59:44.618Z,6.60
2023-04-14T08:02:11.788Z,6.60
2023-04-14T08:04:39.148Z,6.60
2023-04-14T08:07:06.143Z,6.70
2023-04-14T08:09:33.305Z,6.70
2023-04-14T08:12:01.439Z,6.80
2023-04-14T08:14:28.471Z,6.70
2023-04-14T08:16:58.135Z,6.70
2023-04-14T08:19:32.053Z,6.80
2023-04-14T08:21:59.588Z,6.80
2023-04-14T08:24:26.393Z,6.80
2023-04-14T08:26:54.877Z,6.80
2023-04-14T08:29:22.482Z,6.80
2023-04-14T08:31:49.229Z,6.80
2023-04-14T08:34:20.970Z,6.90
2023-04-14T08:36:55.941Z,6.80
2023-04-14T08:39:23.441Z,6.90
2023-04-14T08:41:51.849Z,6.80
2023-04-14T08:44:18.918Z,6.90
2023-04-14T08:46:48.036Z,6.90
2023-04-14T08:49:27.239Z,6.90
2023-04-14T08:51:55.306Z,6.80
2023-04-14T08:54:22.576Z,6.80
2023-04-14T08:56:50.440Z,6.80
2023-04-14T08:59:17.664Z,6.80
2023-04-14T09:01:46.165Z,6.70
2023-04-14T09:04:14.534Z,6.80
2023-04-14T09:06:41.614Z,6.90
2023-04-14T09:09:08.763Z,7.10
2023-04-14T09:11:37.453Z,7.20
2023-04-14T09:14:04.794Z,7.10
2023-04-14T09:16:32.695Z,7.20
2023-04-14T09:19:07.456Z,7.30
2023-04-14T09:21:52.623Z,7.30
2023-04-14T09:24:30.304Z,7.30
2023-04-14T09:27:01.671Z,7.20
2023-04-14T09:29:29.125Z,7.30
2023-04-14T09:31:56.578Z,7.50
2023-04-14T09:34:23.413Z,7.50
2023-04-14T09:37:07.893Z,7.50
2023-04-14T09:39:35.852Z,7.50
2023-04-14T09:42:04.252Z,7.50
2023-04-14T09:44:31.163Z,7.60
2023-04-14T09:47:05.565Z,7.70
2023-04-14T09:49:33.156Z,7.50
2023-04-14T09:52:17.833Z,7.40
2023-04-14T09:54:45.835Z,7.40
2023-04-14T09:57:20.849Z,7.40
2023-04-14T09:59:47.601Z,7.30
2023-04-14T10:02:14.403Z,7.40
2023-04-14T10:04:41.343Z,7.40
2023-04-14T10:07:08.264Z,7.50
2023-04-14T10:09:37.786Z,7.50
2023-04-14T10:12:15.474Z,7.50
2023-04-14T10:14:43.748Z,7.50
2023-04-14T10:17:11.278Z,7.60
2023-04-14T10:19:38.694Z,7.60
2023-04-14T10:22:09.230Z,7.60
2023-04-14T10:24:36.754Z,7.80
2023-04-14T10:27:04.825Z,7.80
2023-04-14T10:29:32.071Z,7.80
2023-04-14T10:32:06.085Z,7.90
2023-04-14T10:34:33.889Z,7.90
2023-04-14T10:37:15.671Z,8.00
2023-04-14T10:39:43.052Z,8.10
2023-04-14T10:42:10.050Z,8.20
2023-04-14T10:44:37.369Z,8.20
2023-04-14T10:47:07.526Z,8.10
2023-04-14T10:49:39.004Z,8.00
2023-04-14T10:52:12.760Z,8.10
2023-04-14T10:55:12.203Z,8.20
2023-04-14T10:57:45.955Z,8.20
2023-04-14T11:00:25.170Z,8.30
2023-04-14T11:02:57.178Z,8.40
2023-04-14T11:05:24.374Z,8.60
2023-04-14T11:08:00.652Z,8.50
2023-04-14T11:10:31.827Z,8.50
2023-04-14T11:13:06.820Z,8.70
2023-04-14T11:16:04.611Z,8.80
2023-04-14T11:18:44.792Z,8.80
2023-04-14T11:21:14.403Z,8.70
2023-04-14T11:23:41.966Z,8.60
2023-04-14T11:26:10.651Z,8.60
2023-04-14T11:28:39.409Z,8.70
2023-04-14T11:31:08.758Z,8.80
2023-04-14T11:33:37.475Z,8.80
2023-04-14T11:36:07.097Z,8.90
2023-04-14T11:38:36.103Z,9.00
2023-04-14T11:41:03.744Z,9.10
2023-04-14T11:43:30.879Z,9.30
2023-04-14T11:46:00.335Z,9.40
2023-04-14T11:48:28.903Z,9.40
2023-04-14T11:51:02.556Z,9.40
2023-04-14T11:53:29.637Z,9.30
2023-04-14T11:55:57.559Z,9.20
2023-04-14T11:58:27.255Z,9.00
2023-04-14T12:00:56.258Z,8.90
2023-04-14T12:03:35.688Z,8.80
2023-04-14T12:06:03.793Z,8.70
2023-04-14T12:08:32.070Z,8.70
2023-04-14T12:11:11.117Z,8.70
2023-04-14T12:13:42.149Z,8.70
2023-04-14T12:16:09.685Z,8.50
2023-04-14T12:18:36.503Z,8.40
2023-04-14T12:21:06.398Z,8.30
2023-04-14T12:23:39.950Z,8.20
2023-04-14T12:26:11.806Z,8.10
2023-04-14T12:28:41.632Z,8.00
2023-04-14T12:31:09.605Z,7.80
2023-04-14T12:33:36.503Z,7.80
2023-04-14T12:36:05.196Z,7.80
2023-04-14T12:38:33.108Z,7.70
2023-04-14T12:41:00.462Z,7.80
2023-04-14T12:43:29.999Z,7.90
2023-04-14T12:45:58.765Z,7.90
2023-04-14T12:48:44.774Z,8.10
2023-04-14T12:51:14.150Z,8.10
2023-04-14T12:53:44.216Z,8.10
2023-04-14T12:56:13.161Z,8.10
2023-04-14T12:58:42.304Z,8.00
2023-04-14T13:01:10.697Z,8.00
2023-04-14T13:03:45.982Z,8.00
2023-04-14T13:06:18.469Z,8.10
2023-04-14T13:08:50.336Z,8.10
2023-04-14T13:11:18.589Z,8.20
2023-04-14T13:13:45.812Z,8.20
2023-04-14T13:16:18.055Z,8.30
2023-04-14T13:18:48.064Z,8.20
2023-04-14T13:21:15.195Z,8.20
2023-04-14T13:23:42.088Z,8.00
2023-04-14T13:26:09.791Z,8.20
2023-04-14T13:28:36.850Z,8.20
2023-04-14T13:31:03.868Z,8.20
2023-04-14T13:33:31.031Z,8.10
2023-04-14T13:35:57.881Z,8.10
2023-04-14T13:38:24.664Z,8.10
2023-04-14T13:40:51.549Z,8.10
2023-04-14T13:43:18.929Z,8.20
2023-04-14T13:45:46.823Z,8.40
2023-04-14T13:48:14.407Z,8.40
2023-04-14T13:50:41.268Z,8.40
2023-04-14T13:53:08.848Z,8.40
2023-04-14T13:55:36.167Z,8.40
2023-04-14T13:58:03.698Z,8.40
2023-04-14T14:00:30.763Z,8.20
2023-04-14T14:02:57.748Z,8.10
2023-04-14T14:05:25.005Z,8.10
2023-04-14T14:07:52.084Z,8.10
2023-04-14T14:10:19.133Z,8.10
2023-04-14T14:12:46.234Z,8.10
2023-04-14T14:15:13.180Z,8.20
2023-04-14T14:17:40.747Z,8.20
2023-04-14T14:20:09.322Z,8.20
2023-04-14T14:22:36.488Z,8.20
2023-04-14T14:25:17.509Z,8.30
2023-04-14T14:27:46.123Z,8.40
2023-04-14T14:30:13.535Z,8.60
2023-04-14T14:32:40.452Z,8.70
2023-04-14T14:35:08.179Z,8.60
2023-04-14T14:37:35.007Z,8.60
2023-04-14T14:40:02.290Z,8.60
2023-04-14T14:42:29.402Z,8.50
2023-04-14T14:44:57.482Z,8.50
2023-04-14T14:47:25.730Z,8.50
2023-04-14T14:49:59.923Z,8.60
2023-04-14T14:52:29.665Z,8.50
2023-04-14T14:54:56.594Z,8.40
2023-04-14T14:57:24.980Z,8.40
2023-04-14T14:59:52.712Z,8.50
2023-04-14T15:02:20.904Z,8.50
2023-04-14T15:04:48.203Z,8.40
2023-04-14T15:07:15.437Z,8.40
2023-04-14T15:09:43.469Z,8.40
2023-04-14T15:12:11.067Z,8.60
2023-04-14T15:14:37.860Z,8.60
2023-04-14T15:17:04.640Z,8.60
2023-04-14T15:19:31.421Z,8.50
2023-04-14T15:21:58.662Z,8.40
2023-04-14T15:24:25.405Z,8.50
2023-04-14T15:26:52.203Z,8.50
2023-04-14T15:29:19.545Z,8.50
2023-04-14T15:31:46.706Z,8.60
2023-04-14T15:34:13.482Z,8.60
2023-04-14T15:36:40.253Z,8.60
2023-04-14T15:39:07.130Z,8.60
2023-04-14T15:41:35.881Z,8.70
2023-04-14T15:44:02.888Z,8.80
2023-04-14T15:46:29.957Z,8.90
2023-04-14T15:48:57.453Z,8.90
2023-04-14T15:51:24.247Z,8.90
2023-04-14T15:53:51.758Z,8.80
2023-04-14T15:56:22.945Z,8.80
2023-04-14T15:58:49.718Z,8.80
2023-04-14T16:01:16.678Z,8.70
2023-04-14T16:03:44.319Z,8.70
2023-04-14T16:06:11.438Z,8.60
2023-04-14T16:08:38.271Z,8.60
2023-04-14T16:11:05.778Z,8.60
2023-04-14T16:13:32.594Z,8.50
2023-04-14T16:15:59.435Z,8.40
2023-04-14T16:18:26.601Z,8.30
2023-04-14T16:20:54.162Z,8.30
2023-04-14T16:23:22.020Z,8.30
2023-04-14T16:25:49.802Z,8.30
2023-04-14T16:28:16.711Z,8.50
2023-04-14T16:30:43.617Z,8.40
2023-04-14T16:33:10.772Z,8.40
2023-04-14T16:35:37.898Z,8.40
2023-04-14T16:38:08.423Z,8.40
2023-04-14T16:40:36.254Z,8.30
2023-04-14T16:43:04.086Z,8.30
2023-04-14T16:45:32.115Z,8.30
2023-04-14T16:47:59.167Z,8.30
2023-04-14T16:50:27.013Z,8.30
2023-04-14T16:52:54.048Z,8.30
2023-04-14T16:55:20.995Z,8.30
2023-04-14T16:57:47.752Z,8.30
2023-04-14T17:00:14.939Z,8.20
2023-04-14T17:02:41.983Z,8.30
2023-04-14T17:05:10.464Z,8.30
2023-04-14T17:07:37.780Z,8.20
2023-04-14T17:10:05.062Z,8.10
2023-04-14T17:12:31.910Z,8.10
2023-04-14T17:15:00.243Z,8.00
2023-04-14T17:17:28.446Z,8.00
2023-04-14T17:19:56.846Z,8.00
2023-04-14T17:22:24.529Z,8.00
2023-04-14T17:24:52.088Z,7.90
2023-04-14T17:27:19.441Z,7.80
2023-04-14T17:29:46.367Z,7.80
2023-04-14T17:32:13.423Z,7.80
2023-04-14T17:34:40.372Z,7.80
2023-04-14T17:37:07.530Z,7.80
2023-04-14T17:39:34.412Z,7.80
2023-04-14T17:42:01.536Z,7.80
2023-04-14T17:44:33.916Z,7.70
2023-04-14T17:47:02.772Z,7.70
2023-04-14T17:49:30.116Z,7.70
2023-04-14T17:51:57.780Z,7.70
2023-04-14T17:54:25.708Z,7.70
2023-04-14T17:56:52.755Z,7.60
2023-04-14T17:59:20.616Z,7.60
2023-04-14T18:01:47.708Z,7.50
2023-04-14T18:04:15.253Z,7.40
2023-04-14T18:06:42.173Z,7.30
2023-04-14T18:09:10.508Z,7.30
2023-04-14T18:11:37.434Z,7.30
2023-04-14T18:14:04.721Z,7.30
2023-04-14T18:16:31.750Z,7.30
2023-04-14T18:18:59.112Z,7.30
2023-04-14T18:21:27.376Z,7.30
2023-04-14T18:26:27.418Z,7.30
2023-04-14T18:28:55.647Z,7.20
2023-04-14T18:31:22.526Z,7.20
2023-04-14T18:33:49.688Z,7.20
2023-04-14T18:36:16.607Z,7.20
2023-04-14T18:38:43.456Z,7.20
2023-04-14T18:41:10.313Z,7.20
2023-04-14T18:43:37.963Z,7.20
2023-04-14T18:46:04.766Z,7.10
2023-04-14T18:48:31.779Z,7.20
2023-04-14T18:51:04.114Z,7.20
2023-04-14T18:53:31.965Z,7.20
2023-04-14T18:55:58.760Z,7.10
2023-04-14T18:58:25.681Z,7.10
2023-04-14T19:00:52.543Z,7.10
2023-04-14T19:03:20.140Z,7.10
2023-04-14T19:05:49.520Z,7.10
2023-04-14T19:08:16.911Z,7.10
2023-04-14T19:10:49.685Z,7.10
2023-04-14T19:13:16.626Z,7.10
2023-04-14T19:15:43.720Z,7.00
2023-04-14T19:18:11.376Z,6.90
2023-04-14T19:20:38.506Z,6.80
2023-04-14T19:23:05.524Z,6.80
2023-04-14T19:25:32.290Z,6.80
2023-04-14T19:28:01.215Z,6.80
2023-04-14T19:30:29.059Z,6.80
2023-04-14T19:32:56.036Z,6.70
2023-04-14T19:35:23.463Z,6.70
2023-04-14T19:37:55.442Z,6.70
2023-04-14T19:40:22.299Z,6.70
2023-04-14T19:42:49.056Z,6.70
2023-04-14T19:45:15.771Z,6.60
2023-04-14T19:47:42.601Z,6.60
2023-04-14T19:50:09.700Z,6.50
2023-04-14T19:52:36.586Z,6.40
2023-04-14T19:55:05.385Z,6.40
2023-04-14T19:57:32.387Z,6.50
2023-04-14T19:59:59.223Z,6.50
2023-04-14T20:02:30.027Z,6.50
2023-04-14T20:04:57.325Z,6.40
2023-04-14T20:07:24.095Z,6.50
2023-04-14T20:09:51.231Z,6.50
2023-04-14T20:12:18.309Z,6.40
2023-04-14T20:14:45.805Z,6.40
2023-04-14T20:17:12.695Z,6.40
2023-04-14T20:19:39.595Z,6.40
2023-04-14T20:22:06.537Z,6.40
2023-04-14T20:24:33.750Z,6.30
2023-04-14T20:27:00.721Z,6.30
2023-04-14T20:29:27.493Z,6.40
2023-04-14T20:31:54.281Z,6.40
2023-04-14T20:34:21.032Z,6.50
2023-04-14T20:36:49.001Z,6.50
2023-04-14T20:39:15.833Z,6.50
2023-04-14T20:41:42.596Z,6.50
2023-04-14T20:44:09.591Z,6.50
2023-04-14T20:46:36.539Z,6.50
2023-04-14T20:49:03.642Z,6.50
2023-04-14T20:51:32.195Z,6.60
2023-04-14T20:53:58.969Z,6.60
2023-04-14T20:56:28.488Z,6.50
2023-04-14T20:58:56.038Z,6.40
2023-04-14T21:01:25.472Z,6.40
2023-04-14T21:03:52.456Z,6.40
2023-04-14T21:06:19.436Z,6.40
2023-04-14T21:08:46.301Z,6.40
2023-04-14T21:11:15.490Z,6.40
2023-04-14T21:15:16.065Z,6.40
2023-04-14T21:16:35.505Z,6.50
2023-04-14T21:19:03.936Z,6.40
2023-04-14T21:21:31.690Z,6.50
2023-04-14T21:23:58.902Z,6.50
2023-04-14T21:26:26.875Z,6.40
2023-04-14T21:28:53.832Z,6.50
2023-04-14T21:31:21.014Z,6.60
2023-04-14T21:33:47.770Z,6.40
2023-04-14T21:36:14.666Z,6.40
2023-04-14T21:38:41.507Z,6.40
2023-04-14T21:41:08.537Z,6.40
2023-04-14T21:43:36.736Z,6.30
2023-04-14T21:46:05.069Z,6.30
2023-04-14T21:48:32.167Z,6.30
2023-04-14T21:50:59.256Z,6.30
2023-04-14T21:53:26.288Z,6.40
2023-04-14T21:55:58.883Z,6.30
2023-04-14T21:58:37.636Z,6.30
2023-04-14T22:01:05.075Z,6.30
2023-04-14T22:03:33.176Z,6.20
2023-04-14T22:06:01.136Z,6.20
2023-04-14T22:08:28.256Z,6.20
2023-04-14T22:10:55.739Z,6.20
2023-04-14T22:13:22.670Z,6.20
2023-04-14T22:15:50.054Z,6.20
2023-04-14T22:18:17.145Z,6.20
2023-04-14T22:20:45.094Z,6.20
2023-04-14T22:23:13.235Z,6.10
2023-04-14T22:25:40.074Z,6.10
2023-04-14T22:28:07.312Z,6.10
2023-04-14T22:30:34.102Z,6.10
2023-04-14T22:33:01.136Z,6.20
2023-04-14T22:35:29.519Z,6.20
2023-04-14T22:37:56.337Z,6.10
2023-04-14T22:40:23.588Z,6.10
2023-04-14T22:42:50.684Z,6.10
2023-04-14T22:45:17.465Z,6.10
2023-04-14T22:47:44.640Z,6.10
2023-04-14T22:50:12.634Z,6.20
2023-04-14T22:52:39.449Z,6.10
2023-04-14T22:55:07.599Z,6.10
2023-04-14T22:57:34.479Z,6.10
2023-04-14T23:00:08.857Z,6.10
2023-04-14T23:02:36.617Z,6.10
2023-04-14T23:05:04.209Z,6.10
2023-04-14T23:07:31.639Z,6.10
2023-04-14T23:09:58.750Z,6.10
2023-04-14T23:12:25.973Z,6.10
2023-04-14T23:14:53.201Z,6.10
2023-04-14T23:17:20.246Z,6.10
2023-04-14T23:19:47.003Z,6.10
2023-04-14T23:22:14.364Z,6.10
2023-04-14T23:24:41.751Z,6.10
2023-04-14T23:27:09.204Z,6.10
2023-04-14T23:29:37.503Z,6.10
2023-04-14T23:32:10.118Z,6.10
2023-04-14T23:34:38.088Z,6.10
2023-04-14T23:37:05.348Z,6.10
2023-04-14T23:39:32.162Z,6.10
2023-04-14T23:41:59.212Z,6.00
2023-04-14T23:44:27.057Z,6.00
2023-04-14T23:46:54.255Z,6.00
2023-04-14T23:49:24.322Z,6.10
2023-04-14T23:52:00.860Z,6.00
2023-04-14T23:54:27.872Z,6.00
2023-04-14T23:56:54.675Z,6.10
2023-04-14T23:59:21.851Z,6.00
